Time;durP1;ratioP1;P1;durP2;ratioP2;P2;SDS_P1;SDS_P2;PMS_P1;PMS_P2;Temp;Humidity;BMP_temperature;BMP_pressure;BME280_temperature;BME280_humidity;BME280_pressure;Samples;Min_cycle;Max_cycle;Signal;HPM_P1;HPM_P2
2023/01/08 00:00:56;;;;;;;7.67;5.10;;;0.30;99.90;;;;;;5120281;27;20571;-48
2023/01/08 00:03:23;;;;;;;4.00;3.60;;;0.50;99.90;;;;;;5117053;27;20467;-47
2023/01/08 00:05:50;;;;;;;5.07;4.50;;;0.60;99.90;;;;;;5120155;27;20511;-48
2023/01/08 00:08:17;;;;;;;6.60;5.97;;;0.20;99.90;;;;;;5118872;27;20885;-47
2023/01/08 00:10:44;;;;;;;9.30;7.70;;;-0.10;99.90;;;;;;5118595;27;20432;-48
2023/01/08 00:13:11;;;;;;;10.00;7.13;;;-0.40;99.90;;;;;;5116945;27;20508;-51
2023/01/08 00:15:40;;;;;;;7.37;5.67;;;-0.10;99.90;;;;;;5119658;27;21045;-47
2023/01/08 00:18:06;;;;;;;7.60;5.03;;;0.10;99.90;;;;;;5107756;28;20530;-47
2023/01/08 00:20:33;;;;;;;9.73;5.43;;;0.50;99.90;;;;;;5107564;28;21019;-47
2023/01/08 00:23:00;;;;;;;7.10;3.90;;;0.60;99.90;;;;;;5106823;28;20545;-48
2023/01/08 00:25:27;;;;;;;7.17;4.93;;;0.50;99.90;;;;;;5106068;28;20987;-48
2023/01/08 00:27:54;;;;;;;5.43;3.63;;;0.50;99.90;;;;;;5107799;28;20775;-47
2023/01/08 00:30:21;;;;;;;6.87;4.20;;;0.40;99.90;;;;;;5107261;28;20463;-48
2023/01/08 00:32:49;;;;;;;9.10;4.13;;;0.20;99.90;;;;;;5114308;27;20500;-48
2023/01/08 00:35:16;;;;;;;5.60;3.57;;;0.50;99.90;;;;;;5127722;27;20541;-47
2023/01/08 00:37:43;;;;;;;3.53;3.20;;;0.80;99.90;;;;;;5127413;27;20525;-51
2023/01/08 00:40:10;;;;;;;3.43;3.13;;;0.80;99.90;;;;;;5120516;27;20478;-47
2023/01/08 00:42:37;;;;;;;4.00;3.10;;;0.80;99.90;;;;;;5120727;27;20486;-48
2023/01/08 00:45:05;;;;;;;4.43;2.83;;;0.80;99.90;;;;;;5118451;27;20987;-47
2023/01/08 00:47:32;;;;;;;2.67;2.47;;;1.10;99.90;;;;;;5121700;27;20474;-46
2023/01/08 00:50:01;;;;;;;3.90;3.50;;;1.10;99.90;;;;;;5128444;27;20857;-47
2023/01/08 00:52:27;;;;;;;6.40;5.60;;;0.80;99.90;;;;;;5116082;27;20466;-46
2023/01/08 00:54:54;;;;;;;6.67;4.33;;;0.80;99.90;;;;;;5121242;27;20461;-47
2023/01/08 00:57:21;;;;;;;5.60;3.23;;;0.70;99.90;;;;;;5121501;27;20517;-46
2023/01/08 00:59:48;;;;;;;3.37;2.30;;;0.40;99.90;;;;;;5121140;27;20498;-49
2023/01/08 01:02:15;;;;;;;3.17;2.30;;;0.40;99.90;;;;;;5119644;27;20488;-47
2023/01/08 01:04:42;;;;;;;3.30;3.00;;;0.70;99.90;;;;;;5118941;27;20900;-47
2023/01/08 01:07:10;;;;;;;3.60;3.10;;;0.70;99.90;;;;;;5121158;27;20538;-49
2023/01/08 01:09:39;;;;;;;3.87;2.80;;;0.80;99.90;;;;;;5110865;27;20478;-46
2023/01/08 01:12:07;;;;;;;4.13;3.20;;;0.60;99.90;;;;;;5113315;27;20538;-48
2023/01/08 01:14:33;;;;;;;7.13;3.50;;;0.60;99.90;;;;;;5119892;27;21056;-48
2023/01/08 01:17:00;;;;;;;3.33;2.80;;;0.30;99.90;;;;;;5122866;27;20995;-47
2023/01/08 01:19:27;;;;;;;5.00;3.07;;;0.30;99.90;;;;;;5117590;27;20539;-47
2023/01/08 01:21:54;;;;;;;3.20;2.60;;;0.50;99.90;;;;;;5121274;27;20478;-47
2023/01/08 01:24:23;;;;;;;3.83;3.27;;;0.70;99.90;;;;;;5121287;27;20994;-47
2023/01/08 01:26:50;;;;;;;4.40;3.20;;;0.70;99.90;;;;;;5114689;27;20439;-47
2023/01/08 01:29:18;;;;;;;4.70;3.60;;;0.70;99.90;;;;;;5114541;27;20465;-48
2023/01/08 01:31:45;;;;;;;5.30;4.80;;;0.60;99.90;;;;;;5111846;27;20466;-48
2023/01/08 01:34:11;;;;;;;5.77;3.60;;;0.30;99.90;;;;;;5113488;27;20458;-46
2023/01/08 01:36:38;;;;;;;4.17;2.77;;;0.50;99.90;;;;;;5116374;27;20517;-50
2023/01/08 01:39:06;;;;;;;2.70;2.37;;;0.30;99.90;;;;;;5120201;27;20474;-49
2023/01/08 01:41:38;;;;;;;5.70;2.97;;;0.70;99.90;;;;;;5116915;27;21380;-49
2023/01/08 01:44:37;;;;;;;3.90;3.20;;;0.90;99.90;;;;;;5121800;27;20462;-50
2023/01/08 01:47:13;;;;;;;4.27;3.73;;;0.90;99.90;;;;;;5122372;27;20435;-47
2023/01/08 01:49:43;;;;;;;5.27;2.77;;;1.00;99.90;;;;;;5123201;27;20533;-48
2023/01/08 01:52:12;;;;;;;3.07;2.77;;;0.70;99.90;;;;;;5125384;27;20561;-49
2023/01/08 01:54:39;;;;;;;3.00;2.70;;;0.50;99.90;;;;;;5124535;27;20466;-47
2023/01/08 01:57:10;;;;;;;2.67;2.47;;;0.50;99.90;;;;;;5122728;27;20514;-50
2023/01/08 01:59:37;;;;;;;3.93;2.60;;;0.60;99.90;;;;;;5119218;27;20516;-46
2023/01/08 02:02:04;;;;;;;3.03;2.43;;;0.50;99.90;;;;;;5119206;27;20997;-47
2023/01/08 02:04:30;;;;;;;1.63;1.43;;;0.80;99.90;;;;;;5115985;27;20567;-48
2023/01/08 02:07:04;;;;;;;2.20;1.70;;;0.90;99.90;;;;;;5120824;27;20524;-47
2023/01/08 02:09:40;;;;;;;2.43;2.10;;;0.30;99.90;;;;;;5125822;27;20815;-47
2023/01/08 02:12:16;;;;;;;3.10;2.00;;;-0.20;99.90;;;;;;5121144;27;20938;-47
2023/01/08 02:14:59;;;;;;;2.13;1.53;;;0.00;99.90;;;;;;5122703;27;20461;-48
2023/01/08 02:17:34;;;;;;;3.23;2.10;;;0.30;99.90;;;;;;5121464;27;20867;-47
2023/01/08 02:20:08;;;;;;;3.23;1.97;;;0.40;99.90;;;;;;5124881;27;20474;-47
2023/01/08 02:22:58;;;;;;;2.57;1.60;;;0.20;99.90;;;;;;5124612;27;20442;-46
2023/01/08 02:25:36;;;;;;;3.00;1.87;;;0.40;99.90;;;;;;5120373;27;21058;-47
2023/01/08 02:28:08;;;;;;;3.97;2.00;;;0.20;99.90;;;;;;5116312;27;20435;-47
2023/01/08 02:30:36;;;;;;;2.77;2.17;;;0.30;99.90;;;;;;5118511;27;20470;-47
2023/01/08 02:33:03;;;;;;;5.43;2.70;;;0.60;99.90;;;;;;5117506;27;20471;-47
2023/01/08 02:35:37;;;;;;;1.90;1.70;;;0.40;99.90;;;;;;5117121;27;20457;-47
2023/01/08 02:38:05;;;;;;;3.40;2.67;;;0.30;99.90;;;;;;5121033;27;20926;-48
2023/01/08 02:40:41;;;;;;;2.80;2.10;;;0.20;99.90;;;;;;5123205;27;21016;-47
2023/01/08 02:43:15;;;;;;;3.00;2.47;;;0.30;99.90;;;;;;5119062;27;20470;-47
2023/01/08 02:45:46;;;;;;;2.93;1.90;;;0.40;99.90;;;;;;5116267;27;20494;-48
2023/01/08 02:48:19;;;;;;;2.80;2.27;;;0.50;99.90;;;;;;5121173;27;20518;-47
2023/01/08 02:50:51;;;;;;;2.60;2.37;;;0.70;99.90;;;;;;5123934;27;20462;-47
2023/01/08 02:53:22;;;;;;;3.23;1.90;;;0.40;99.90;;;;;;5118708;27;21025;-47
2023/01/08 02:55:53;;;;;;;3.30;2.27;;;0.30;99.90;;;;;;5122407;27;20497;-47
2023/01/08 02:58:23;;;;;;;3.47;2.07;;;0.20;99.90;;;;;;5118459;27;20521;-48
2023/01/08 03:00:51;;;;;;;2.57;1.73;;;0.40;99.90;;;;;;5116705;27;20530;-49
2023/01/08 03:03:22;;;;;;;5.03;2.43;;;0.30;99.90;;;;;;5117551;27;20442;-47
2023/01/08 03:05:52;;;;;;;4.47;2.00;;;0.10;99.90;;;;;;5119740;27;20490;-48
2023/01/08 03:08:21;;;;;;;2.23;1.70;;;-0.10;99.90;;;;;;5124842;27;20526;-47
2023/01/08 03:10:52;;;;;;;2.07;1.17;;;0.20;99.90;;;;;;5118089;27;20521;-46
2023/01/08 03:13:24;;;;;;;2.30;1.73;;;0.40;99.90;;;;;;5123690;27;20524;-47
2023/01/08 03:15:55;;;;;;;4.30;2.60;;;0.10;99.90;;;;;;5124344;27;21091;-47
2023/01/08 03:18:30;;;;;;;5.63;3.50;;;-0.10;99.90;;;;;;5124345;27;20529;-47
2023/01/08 03:20:57;;;;;;;3.20;2.50;;;-0.40;99.90;;;;;;5118655;27;20981;-47
2023/01/08 03:23:26;;;;;;;2.13;1.80;;;-0.50;99.90;;;;;;5120565;27;20454;-47
2023/01/08 03:25:53;;;;;;;2.77;2.10;;;-0.40;99.90;;;;;;5116572;27;20517;-47
2023/01/08 03:28:28;;;;;;;2.40;1.80;;;-0.40;99.90;;;;;;5115869;27;21011;-47
2023/01/08 03:30:56;;;;;;;1.80;1.60;;;-0.30;99.90;;;;;;5112105;27;20434;-47
2023/01/08 03:33:25;;;;;;;1.57;1.10;;;-0.10;99.90;;;;;;5118199;27;20471;-47
2023/01/08 03:35:54;;;;;;;1.87;1.67;;;0.10;99.90;;;;;;5122375;27;20542;-50
2023/01/08 03:38:27;;;;;;;3.47;2.30;;;0.10;99.90;;;;;;5115060;27;20922;-47
2023/01/08 03:40:57;;;;;;;2.33;2.13;;;-0.40;99.90;;;;;;5116708;27;20998;-48
2023/01/08 03:43:27;;;;;;;2.53;1.93;;;-0.80;99.90;;;;;;5118703;27;20538;-48
2023/01/08 03:45:58;;;;;;;1.73;1.57;;;-0.50;99.90;;;;;;5122102;27;20447;-46
2023/01/08 03:48:26;;;;;;;2.03;1.10;;;-0.20;99.90;;;;;;5121678;27;20522;-47
2023/01/08 03:50:53;;;;;;;1.53;1.27;;;0.00;99.90;;;;;;5117013;27;20458;-49
2023/01/08 03:53:20;;;;;;;3.23;2.70;;;0.40;99.90;;;;;;5113660;27;21288;-47
2023/01/08 03:55:47;;;;;;;5.10;2.70;;;0.30;99.90;;;;;;5117867;27;20547;-49
2023/01/08 03:58:14;;;;;;;5.23;2.80;;;-0.10;99.90;;;;;;5116514;27;20528;-48
2023/01/08 04:00:42;;;;;;;3.60;2.80;;;-0.40;99.90;;;;;;5115792;27;21082;-47
2023/01/08 04:03:09;;;;;;;3.33;2.57;;;-0.50;99.90;;;;;;5119385;27;20505;-48
2023/01/08 04:05:36;;;;;;;4.63;3.43;;;-0.40;99.90;;;;;;5118477;27;20899;-47
2023/01/08 04:08:03;;;;;;;4.13;3.23;;;-0.40;99.90;;;;;;5119738;27;20542;-46
2023/01/08 04:10:29;;;;;;;3.23;2.60;;;-0.50;99.90;;;;;;5123400;27;21006;-46
2023/01/08 04:12:56;;;;;;;5.43;2.03;;;-0.40;99.90;;;;;;5119606;27;20478;-45
2023/01/08 04:15:23;;;;;;;2.10;1.90;;;-0.60;99.90;;;;;;5121730;27;20494;-49
2023/01/08 04:17:52;;;;;;;2.33;1.20;;;-0.60;99.90;;;;;;5120682;27;20534;-47
2023/01/08 04:20:19;;;;;;;2.63;1.90;;;-0.50;99.90;;;;;;5120078;27;20476;-47
2023/01/08 04:22:46;;;;;;;1.90;1.60;;;-0.30;99.90;;;;;;5121147;27;20477;-47
2023/01/08 04:25:13;;;;;;;5.20;3.17;;;-0.10;99.90;;;;;;5116850;27;21047;-47
2023/01/08 04:27:40;;;;;;;2.40;2.20;;;-0.40;99.90;;;;;;5117240;27;20457;-48
2023/01/08 04:30:09;;;;;;;5.03;2.80;;;-0.70;99.90;;;;;;5114721;27;20467;-46
2023/01/08 04:32:35;;;;;;;4.87;3.40;;;-0.70;99.90;;;;;;5114385;27;21008;-49
2023/01/08 04:35:04;;;;;;;3.60;3.30;;;-0.80;99.90;;;;;;5114558;27;20537;-47
2023/01/08 04:37:31;;;;;;;3.80;2.40;;;-1.30;99.90;;;;;;5118175;27;20522;-47
2023/01/08 04:39:58;;;;;;;2.50;1.50;;;-1.20;99.90;;;;;;5122348;27;20466;-48
2023/01/08 04:42:25;;;;;;;1.87;1.13;;;-0.70;99.90;;;;;;5121467;27;20562;-49
2023/01/08 04:44:52;;;;;;;2.40;1.30;;;-0.30;99.90;;;;;;5110887;27;20546;-47
2023/01/08 04:47:19;;;;;;;11.60;6.87;;;-0.20;99.90;;;;;;5122037;27;21318;-48
2023/01/08 04:49:45;;;;;;;6.60;5.70;;;-0.20;99.90;;;;;;5123637;27;20462;-47
2023/01/08 04:52:14;;;;;;;5.13;3.43;;;-0.40;99.90;;;;;;5123502;27;20562;-47
2023/01/08 04:54:40;;;;;;;11.03;5.63;;;-0.60;99.90;;;;;;5121672;27;20495;-45
2023/01/08 04:57:08;;;;;;;9.30;4.77;;;-0.70;99.90;;;;;;5120377;27;20514;-47
2023/01/08 04:59:34;;;;;;;4.73;3.13;;;-0.70;99.90;;;;;;5115407;27;20517;-46
2023/01/08 05:02:01;;;;;;;3.87;2.13;;;-0.40;99.90;;;;;;5114695;27;20507;-49
2023/01/08 05:04:28;;;;;;;2.27;2.07;;;-0.20;99.90;;;;;;5118442;27;20554;-48
2023/01/08 05:06:55;;;;;;;3.00;1.90;;;-0.60;99.90;;;;;;5122395;27;20466;-47
2023/01/08 05:09:23;;;;;;;2.27;1.83;;;-0.20;99.90;;;;;;5118408;27;20526;-47
2023/01/08 05:11:50;;;;;;;1.20;1.00;;;-0.10;99.90;;;;;;5121883;27;20473;-47
2023/01/08 05:14:17;;;;;;;1.40;1.13;;;0.10;99.90;;;;;;5120835;27;20533;-47
2023/01/08 05:16:44;;;;;;;4.00;3.00;;;0.10;99.90;;;;;;5116157;27;20478;-50
2023/01/08 05:19:11;;;;;;;3.40;2.00;;;-0.50;99.90;;;;;;5121642;27;20474;-47
2023/01/08 05:21:38;;;;;;;2.13;1.37;;;-0.50;99.90;;;;;;5120845;27;20556;-47
2023/01/08 05:24:05;;;;;;;2.40;1.70;;;-0.50;99.90;;;;;;5119908;27;20462;-49
2023/01/08 05:26:33;;;;;;;14.33;3.60;;;-0.50;99.90;;;;;;5119907;27;20465;-48
2023/01/08 05:29:01;;;;;;;3.90;3.40;;;-1.20;99.90;;;;;;5118453;27;20478;-48
2023/01/08 05:31:28;;;;;;;2.03;1.80;;;-1.30;99.90;;;;;;5117398;27;20882;-47
2023/01/08 05:33:57;;;;;;;2.03;1.57;;;-1.00;99.90;;;;;;5121982;27;20547;-46
2023/01/08 05:36:24;;;;;;;1.83;1.30;;;-0.60;99.90;;;;;;5122269;27;20489;-48
2023/01/08 05:38:50;;;;;;;1.50;1.40;;;-0.50;99.90;;;;;;5120222;27;20861;-47
2023/01/08 05:41:17;;;;;;;2.07;1.97;;;-0.30;99.90;;;;;;5125557;27;20502;-47
2023/01/08 05:43:46;;;;;;;1.40;1.30;;;-0.30;99.90;;;;;;5122917;27;20474;-50
2023/01/08 05:46:12;;;;;;;1.90;1.50;;;-0.40;99.90;;;;;;5123513;27;20870;-47
2023/01/08 05:48:39;;;;;;;2.50;1.70;;;-0.30;99.90;;;;;;5124876;27;20469;-48
2023/01/08 05:51:06;;;;;;;6.10;3.53;;;-0.30;99.90;;;;;;5121954;27;20470;-50
2023/01/08 05:53:33;;;;;;;10.20;4.10;;;-0.20;99.90;;;;;;5123194;27;21257;-46
2023/01/08 05:56:01;;;;;;;9.20;4.60;;;-0.60;99.90;;;;;;5121317;27;20470;-47
2023/01/08 05:58:29;;;;;;;3.27;2.80;;;-1.20;99.90;;;;;;5119403;27;20442;-47
2023/01/08 06:01:02;;;;;;;2.67;2.17;;;-1.30;99.90;;;;;;5118119;27;20553;-47
2023/01/08 06:03:29;;;;;;;4.20;2.00;;;-0.80;99.90;;;;;;5122571;27;20442;-50
2023/01/08 06:05:59;;;;;;;4.50;2.30;;;-0.60;99.90;;;;;;5125791;27;20539;-48
2023/01/08 06:08:26;;;;;;;4.77;2.27;;;-0.60;99.90;;;;;;5124089;27;20439;-48
2023/01/08 06:10:53;;;;;;;2.63;2.00;;;-0.50;99.90;;;;;;5125649;27;20462;-46
2023/01/08 06:13:20;;;;;;;2.67;2.20;;;-0.50;99.90;;;;;;5123910;27;20533;-48
2023/01/08 06:15:47;;;;;;;1.60;1.10;;;-0.50;99.90;;;;;;5125356;27;20497;-50
2023/01/08 06:18:15;;;;;;;1.37;0.90;;;-0.50;99.90;;;;;;5126052;27;20525;-46
2023/01/08 06:20:42;;;;;;;2.40;2.10;;;-0.40;99.90;;;;;;5125621;27;20534;-47
2023/01/08 06:23:09;;;;;;;2.73;2.47;;;-0.30;99.90;;;;;;5120466;27;20917;-48
2023/01/08 06:25:36;;;;;;;2.10;1.90;;;-0.50;99.90;;;;;;5117496;27;20982;-48
2023/01/08 06:28:04;;;;;;;1.93;1.70;;;-1.00;99.90;;;;;;5118333;27;21042;-47
2023/01/08 06:30:31;;;;;;;1.23;1.10;;;-0.40;99.90;;;;;;5119688;27;20958;-47
2023/01/08 06:32:58;;;;;;;2.80;1.97;;;-0.10;99.90;;;;;;5125141;27;20462;-47
2023/01/08 06:35:27;;;;;;;4.53;3.77;;;0.20;99.90;;;;;;5115385;27;20534;-47
2023/01/08 06:37:55;;;;;;;4.17;3.53;;;0.50;99.90;;;;;;5121292;27;20443;-46
2023/01/08 06:40:22;;;;;;;29.83;19.87;;;0.50;99.90;;;;;;5123172;27;20475;-46
2023/01/08 06:42:49;;;;;;;3.77;3.10;;;-0.40;99.90;;;;;;5119847;27;20555;-46
2023/01/08 06:45:16;;;;;;;2.30;1.60;;;-0.40;99.90;;;;;;5124352;27;20518;-49
2023/01/08 06:47:43;;;;;;;3.70;3.20;;;-0.20;99.90;;;;;;5124930;27;20478;-47
2023/01/08 06:50:10;;;;;;;4.37;3.20;;;0.10;99.90;;;;;;5118661;27;21010;-47
2023/01/08 06:52:38;;;;;;;3.67;3.00;;;0.10;99.90;;;;;;5123782;27;20948;-48
2023/01/08 06:55:06;;;;;;;1.40;1.20;;;0.00;99.90;;;;;;5118980;27;20550;-47
2023/01/08 06:57:33;;;;;;;2.67;1.07;;;0.10;99.90;;;;;;5118343;27;20518;-48
2023/01/08 07:00:00;;;;;;;3.77;3.37;;;0.30;99.90;;;;;;5116476;27;20875;-48
2023/01/08 07:02:27;;;;;;;32.47;23.87;;;0.10;99.90;;;;;;5120995;27;20509;-51
2023/01/08 07:04:54;;;;;;;5.60;3.80;;;-0.10;99.90;;;;;;5119409;27;20490;-47
2023/01/08 07:07:20;;;;;;;4.90;2.60;;;-0.80;99.90;;;;;;5122446;27;20480;-48
2023/01/08 07:09:49;;;;;;;6.40;5.80;;;-0.30;99.90;;;;;;5119964;27;20542;-49
2023/01/08 07:12:16;;;;;;;6.30;4.27;;;0.10;99.90;;;;;;5120836;27;20469;-47
2023/01/08 07:14:43;;;;;;;4.90;4.40;;;0.00;99.90;;;;;;5120092;27;20551;-47
2023/01/08 07:17:10;;;;;;;5.83;4.30;;;0.00;99.90;;;;;;5124849;27;20471;-50
2023/01/08 07:19:37;;;;;;;7.50;6.50;;;-0.30;99.90;;;;;;5119367;27;20449;-48
2023/01/08 07:22:04;;;;;;;5.10;3.90;;;-0.50;99.90;;;;;;5117317;27;20622;-47
2023/01/08 07:24:30;;;;;;;3.53;3.10;;;-0.30;99.90;;;;;;5118027;27;20905;-49
2023/01/08 07:26:59;;;;;;;3.60;3.20;;;0.20;99.90;;;;;;5115174;27;20924;-47
2023/01/08 07:29:26;;;;;;;4.40;3.50;;;0.30;99.90;;;;;;5117439;27;20971;-48
2023/01/08 07:31:52;;;;;;;3.80;3.40;;;0.20;99.90;;;;;;5122991;27;20447;-49
2023/01/08 07:34:19;;;;;;;2.87;2.40;;;0.20;99.90;;;;;;5121292;27;20598;-48
2023/01/08 07:36:46;;;;;;;4.00;3.60;;;0.20;99.90;;;;;;5123910;27;20465;-47
2023/01/08 07:39:13;;;;;;;6.10;4.30;;;0.30;99.90;;;;;;5123642;27;20568;-47
2023/01/08 07:41:40;;;;;;;5.90;4.10;;;0.40;99.90;;;;;;5121047;27;20979;-48
2023/01/08 07:44:08;;;;;;;2.60;2.20;;;0.60;99.90;;;;;;5120245;27;20562;-48
2023/01/08 07:46:35;;;;;;;3.50;2.03;;;0.50;99.90;;;;;;5122237;27;20569;-51
2023/01/08 07:49:02;;;;;;;4.80;3.73;;;0.70;99.90;;;;;;5121677;27;20469;-47
2023/01/08 07:51:29;;;;;;;5.30;4.07;;;0.80;99.90;;;;;;5119192;27;20521;-47
2023/01/08 07:53:56;;;;;;;7.00;4.13;;;0.60;99.90;;;;;;5129915;27;20450;-49
2023/01/08 07:56:24;;;;;;;5.00;3.60;;;0.30;99.90;;;;;;5123940;27;20876;-48
2023/01/08 07:58:51;;;;;;;5.17;3.67;;;0.20;99.90;;;;;;5111526;27;20444;-47
2023/01/08 08:01:19;;;;;;;6.50;5.80;;;0.20;99.90;;;;;;5109869;28;20494;-47
2023/01/08 08:03:46;;;;;;;4.60;4.20;;;0.40;99.90;;;;;;5110977;27;21046;-47
2023/01/08 08:06:13;;;;;;;4.30;3.50;;;0.40;99.90;;;;;;5112686;27;20523;-48
2023/01/08 08:08:40;;;;;;;5.00;3.57;;;0.60;99.90;;;;;;5109709;27;20516;-47
2023/01/08 08:11:07;;;;;;;6.40;4.03;;;0.80;99.90;;;;;;5110112;27;20535;-50
2023/01/08 08:13:33;;;;;;;4.87;3.77;;;0.50;99.90;;;;;;5108728;28;20953;-47
2023/01/08 08:16:04;;;;;;;5.40;3.13;;;0.30;99.90;;;;;;5109491;28;20518;-48
2023/01/08 08:18:32;;;;;;;4.37;2.97;;;0.70;99.90;;;;;;5118398;27;20473;-48
2023/01/08 08:20:59;;;;;;;3.40;2.67;;;0.70;99.90;;;;;;5117683;27;20477;-47
2023/01/08 08:23:26;;;;;;;3.87;3.23;;;0.70;99.90;;;;;;5117049;27;20470;-49
2023/01/08 08:25:53;;;;;;;4.80;3.83;;;0.90;99.90;;;;;;5119937;27;20493;-48
2023/01/08 08:28:21;;;;;;;4.57;3.30;;;0.70;99.90;;;;;;5118121;27;20488;-47
2023/01/08 08:30:48;;;;;;;5.03;3.20;;;1.00;99.90;;;;;;5119087;27;20536;-48
2023/01/08 08:33:15;;;;;;;5.80;4.80;;;1.10;99.90;;;;;;5116694;27;20431;-44
2023/01/08 08:35:49;;;;;;;10.00;5.90;;;1.20;99.90;;;;;;5118723;27;20546;-47
2023/01/08 08:38:16;;;;;;;7.60;5.30;;;1.20;99.90;;;;;;5117550;27;20446;-47
2023/01/08 08:40:43;;;;;;;4.40;4.00;;;1.30;99.90;;;;;;5118104;27;20514;-49
2023/01/08 08:43:10;;;;;;;7.50;4.93;;;0.70;99.90;;;;;;5116988;27;21049;-48
2023/01/08 08:45:37;;;;;;;6.90;5.23;;;0.90;99.90;;;;;;5117432;27;20545;-51
2023/01/08 08:48:06;;;;;;;5.83;3.57;;;1.10;99.90;;;;;;5116667;27;20506;-47
2023/01/08 08:50:33;;;;;;;11.23;8.00;;;1.20;99.90;;;;;;5115431;27;20470;-49
2023/01/08 08:53:02;;;;;;;9.30;6.37;;;1.20;99.90;;;;;;5117000;27;20976;-47
2023/01/08 08:55:29;;;;;;;5.10;3.47;;;1.20;99.90;;;;;;5114792;27;21033;-51
2023/01/08 08:58:03;;;;;;;6.03;2.90;;;1.10;99.90;;;;;;5116008;27;20474;-47
2023/01/08 09:00:30;;;;;;;6.03;4.67;;;1.40;99.90;;;;;;5117035;27;20441;-51
2023/01/08 09:02:57;;;;;;;7.57;6.63;;;1.60;99.90;;;;;;5117885;28;20502;-46
2023/01/08 09:05:24;;;;;;;6.50;5.33;;;1.40;99.90;;;;;;5116792;28;20516;-47
2023/01/08 09:07:51;;;;;;;8.20;5.10;;;0.90;99.90;;;;;;5118482;28;20442;-48
2023/01/08 09:10:19;;;;;;;5.90;5.30;;;1.20;99.90;;;;;;5116657;27;20466;-50
2023/01/08 09:12:46;;;;;;;5.93;4.17;;;1.30;99.90;;;;;;5117952;27;20522;-50
2023/01/08 09:15:13;;;;;;;5.20;4.70;;;1.10;99.90;;;;;;5116056;27;20744;-50
2023/01/08 09:17:40;;;;;;;6.00;4.43;;;1.20;99.90;;;;;;5117016;27;20525;-50
2023/01/08 09:20:07;;;;;;;5.87;5.00;;;1.30;99.90;;;;;;5117582;28;20522;-49
2023/01/08 09:22:34;;;;;;;5.40;4.80;;;1.30;99.90;;;;;;5116735;27;20561;-48
2023/01/08 09:25:01;;;;;;;7.50;4.80;;;1.40;99.90;;;;;;5113232;28;20527;-47
2023/01/08 09:27:29;;;;;;;4.77;3.67;;;1.60;99.90;;;;;;5117921;27;20466;-49
2023/01/08 09:29:56;;;;;;;4.17;3.77;;;1.80;99.90;;;;;;5118337;28;20525;-50
2023/01/08 09:32:23;;;;;;;3.40;2.97;;;1.80;99.90;;;;;;5116058;28;20518;-49
2023/01/08 09:34:50;;;;;;;4.50;3.13;;;1.80;99.90;;;;;;5115763;27;20555;-52
2023/01/08 09:37:17;;;;;;;8.20;5.00;;;2.00;99.90;;;;;;5118749;27;20525;-46
2023/01/08 09:39:43;;;;;;;4.27;3.57;;;2.00;99.90;;;;;;5114937;28;20522;-46
2023/01/08 09:42:13;;;;;;;4.57;4.13;;;1.90;99.90;;;;;;5117385;27;20493;-49
2023/01/08 09:44:45;;;;;;;2.90;2.07;;;2.00;99.90;;;;;;5118198;28;20994;-47
2023/01/08 09:47:24;;;;;;;2.30;1.47;;;2.00;99.90;;;;;;5119002;28;20471;-46
2023/01/08 09:49:55;;;;;;;3.40;3.10;;;2.30;99.90;;;;;;5118408;28;20470;-46
2023/01/08 09:52:22;;;;;;;4.27;3.60;;;2.40;99.90;;;;;;5116578;28;20530;-46
2023/01/08 09:54:49;;;;;;;6.73;4.23;;;2.50;99.90;;;;;;5112552;28;20477;-46
2023/01/08 09:57:18;;;;;;;5.73;3.87;;;2.30;99.90;;;;;;5119721;28;20537;-46
2023/01/08 09:59:48;;;;;;;5.80;3.93;;;2.30;99.90;;;;;;5110347;28;20475;-48
2023/01/08 10:02:17;;;;;;;7.23;5.30;;;2.30;99.90;;;;;;5110946;27;20864;-44
2023/01/08 10:04:44;;;;;;;4.67;3.53;;;2.40;99.90;;;;;;5112201;27;20844;-47
2023/01/08 10:07:20;;;;;;;5.73;4.23;;;2.50;99.90;;;;;;5121258;27;20445;-46
2023/01/08 10:09:49;;;;;;;8.90;6.43;;;2.60;99.90;;;;;;5113998;27;20495;-46
2023/01/08 10:12:18;;;;;;;7.53;6.13;;;2.60;99.90;;;;;;5107714;28;20439;-46
2023/01/08 10:14:48;;;;;;;8.00;6.00;;;2.60;99.90;;;;;;5108279;27;20495;-46
2023/01/08 10:17:24;;;;;;;8.73;6.63;;;2.60;99.90;;;;;;5123296;27;20450;-46
2023/01/08 10:19:51;;;;;;;10.03;6.43;;;2.50;99.90;;;;;;5125826;27;20473;-48
2023/01/08 10:22:21;;;;;;;7.03;6.20;;;2.50;99.90;;;;;;5121558;27;20481;-48
2023/01/08 10:24:48;;;;;;;6.70;5.63;;;2.60;99.90;;;;;;5109200;27;20524;-48
2023/01/08 10:27:17;;;;;;;7.80;5.00;;;2.70;99.90;;;;;;5111800;27;20532;-46
2023/01/08 10:29:44;;;;;;;5.17;4.60;;;2.80;99.90;;;;;;5121692;27;20434;-46
2023/01/08 10:32:16;;;;;;;5.30;4.80;;;2.70;99.90;;;;;;5137726;27;20531;-47
2023/01/08 10:34:48;;;;;;;7.53;5.20;;;2.80;99.90;;;;;;5119517;27;20773;-47
2023/01/08 10:37:27;;;;;;;6.67;3.60;;;2.90;99.90;;;;;;5108476;28;20530;-44
2023/01/08 10:39:55;;;;;;;7.73;5.13;;;2.80;99.90;;;;;;5110032;27;20514;-49
2023/01/08 10:42:24;;;;;;;9.23;7.00;;;3.00;99.90;;;;;;5113534;27;20515;-48
2023/01/08 10:45:00;;;;;;;9.33;5.57;;;3.10;99.90;;;;;;5121612;27;20467;-46
2023/01/08 10:47:33;;;;;;;8.40;7.30;;;2.90;99.90;;;;;;5114402;27;20528;-45
2023/01/08 10:50:02;;;;;;;8.07;5.53;;;3.00;99.90;;;;;;5108676;27;20883;-48
2023/01/08 10:52:31;;;;;;;3.83;3.37;;;3.00;99.90;;;;;;5118799;27;20520;-46
2023/01/08 10:55:10;;;;;;;4.93;3.50;;;3.20;99.90;;;;;;5107196;27;21130;-46
2023/01/08 10:57:40;;;;;;;7.10;5.53;;;3.40;99.90;;;;;;5114732;27;21005;-47
2023/01/08 11:00:23;;;;;;;4.87;4.37;;;3.60;99.90;;;;;;5111514;27;20773;-49
2023/01/08 11:02:52;;;;;;;8.80;3.83;;;3.70;99.90;;;;;;5129518;27;20449;-47
2023/01/08 11:05:19;;;;;;;4.10;3.50;;;4.00;99.90;;;;;;5122740;27;20465;-50
2023/01/08 11:07:52;;;;;;;7.73;4.20;;;4.20;99.90;;;;;;5115130;27;20445;-51
2023/01/08 11:10:23;;;;;;;7.40;5.63;;;4.10;99.90;;;;;;5113563;27;20520;-51
2023/01/08 11:12:55;;;;;;;5.73;4.23;;;3.90;99.90;;;;;;5112241;27;20560;-48
2023/01/08 11:15:34;;;;;;;5.83;5.27;;;3.80;99.90;;;;;;5109789;27;20556;-51
2023/01/08 11:18:21;;;;;;;5.20;4.70;;;3.60;99.90;;;;;;5109786;27;20455;-50
2023/01/08 11:20:49;;;;;;;9.07;7.50;;;3.60;99.90;;;;;;5107655;27;20506;-52
2023/01/08 11:23:19;;;;;;;8.87;6.47;;;3.60;99.90;;;;;;5105474;27;20516;-48
2023/01/08 11:25:55;;;;;;;5.93;4.00;;;3.70;99.90;;;;;;5114792;27;20827;-49
2023/01/08 11:28:29;;;;;;;11.20;5.20;;;3.80;99.90;;;;;;5109620;27;20450;-50
2023/01/08 11:31:06;;;;;;;5.23;4.70;;;3.90;99.90;;;;;;5108871;27;20452;-49
2023/01/08 11:33:39;;;;;;;6.10;5.00;;;4.10;99.90;;;;;;5111297;27;20633;-50
2023/01/08 11:36:13;;;;;;;5.30;4.37;;;4.20;99.90;;;;;;5111688;27;20528;-50
2023/01/08 11:38:40;;;;;;;6.10;5.50;;;4.20;99.90;;;;;;5112556;27;20538;-49
2023/01/08 11:41:25;;;;;;;4.87;3.60;;;4.20;99.90;;;;;;5113683;27;20749;-51
2023/01/08 11:44:04;;;;;;;7.13;5.67;;;4.20;99.90;;;;;;5113657;27;20837;-49
2023/01/08 11:46:38;;;;;;;5.77;4.30;;;4.20;99.90;;;;;;5125975;27;20926;-51
2023/01/08 11:49:26;;;;;;;7.27;4.30;;;4.10;99.90;;;;;;5125941;27;21071;-50
2023/01/08 11:52:04;;;;;;;8.17;4.50;;;4.00;99.90;;;;;;5124391;27;20446;-51
2023/01/08 11:54:42;;;;;;;3.40;3.10;;;4.30;99.90;;;;;;5124683;27;20551;-50
2023/01/08 11:57:20;;;;;;;5.53;3.87;;;4.40;99.90;;;;;;5125638;27;20536;-49
2023/01/08 11:59:56;;;;;;;4.20;3.80;;;4.50;99.90;;;;;;5106419;28;20523;-50
2023/01/08 12:02:40;;;;;;;5.30;3.40;;;4.60;99.90;;;;;;5130174;27;20527;-52
2023/01/08 12:05:26;;;;;;;3.97;3.00;;;4.80;99.90;;;;;;5105733;27;20718;-49
2023/01/08 12:08:02;;;;;;;4.43;3.63;;;4.80;99.90;;;;;;5107002;28;20543;-48
2023/01/08 12:10:41;;;;;;;12.40;5.53;;;4.70;99.90;;;;;;5106503;27;20521;-51
2023/01/08 12:13:27;;;;;;;7.90;4.37;;;4.70;99.90;;;;;;5108475;27;20543;-50
2023/01/08 12:16:05;;;;;;;7.17;5.30;;;4.70;99.90;;;;;;5106794;28;20480;-49
2023/01/08 12:18:46;;;;;;;5.47;4.80;;;4.80;99.90;;;;;;5106677;28;20525;-50
2023/01/08 12:21:22;;;;;;;6.83;5.07;;;4.80;99.90;;;;;;5106474;28;20470;-49
2023/01/08 12:24:06;;;;;;;5.73;4.90;;;4.90;99.90;;;;;;5105471;28;21001;-49
2023/01/08 12:26:43;;;;;;;8.30;7.30;;;4.80;99.90;;;;;;5115267;27;20438;-49
2023/01/08 12:29:41;;;;;;;9.17;6.80;;;4.60;99.90;;;;;;5114815;27;20506;-51
2023/01/08 12:32:23;;;;;;;6.70;4.00;;;4.60;99.90;;;;;;5121151;27;20998;-50
2023/01/08 12:34:56;;;;;;;4.53;3.93;;;4.50;99.90;;;;;;5118959;27;20460;-50
2023/01/08 12:37:28;;;;;;;4.87;3.87;;;4.50;99.90;;;;;;5117871;27;21065;-51
2023/01/08 12:40:05;;;;;;;6.70;5.30;;;4.60;99.90;;;;;;5115618;27;20570;-50
2023/01/08 12:42:37;;;;;;;5.97;5.40;;;4.60;99.90;;;;;;5114409;27;20523;-49
2023/01/08 12:45:12;;;;;;;6.23;5.53;;;4.60;99.90;;;;;;5115418;27;20612;-48
2023/01/08 12:47:41;;;;;;;7.60;4.90;;;4.60;99.90;;;;;;5118184;27;20447;-49
2023/01/08 12:50:27;;;;;;;5.50;4.90;;;4.60;99.90;;;;;;5123330;27;20933;-49
2023/01/08 12:53:03;;;;;;;8.47;6.37;;;4.50;99.90;;;;;;5126007;27;20491;-48
2023/01/08 12:55:42;;;;;;;6.73;6.03;;;4.60;99.90;;;;;;5125781;27;20564;-49
2023/01/08 12:58:19;;;;;;;7.80;5.87;;;4.60;99.90;;;;;;5126438;27;20919;-51
2023/01/08 13:00:56;;;;;;;9.90;6.37;;;4.50;99.90;;;;;;5106088;28;20536;-49
2023/01/08 13:03:27;;;;;;;6.83;5.47;;;4.50;99.90;;;;;;5117695;27;20522;-49
2023/01/08 13:06:07;;;;;;;8.20;5.80;;;4.50;99.90;;;;;;5138819;27;20479;-49